createdAt,value
2019-05-21T00:01:06.872Z,10.00
2019-05-21T00:03:37.979Z,7.10
2019-05-21T00:06:08.527Z,7.43
2019-05-21T00:08:36.318Z,7.93
2019-05-21T00:11:04.510Z,7.50
2019-05-21T00:13:36.518Z,5.87
2019-05-21T00:16:07.536Z,5.93
2019-05-21T00:18:35.168Z,7.03
2019-05-21T00:21:04.031Z,6.00
2019-05-21T00:23:31.820Z,6.47
2019-05-21T00:26:00.691Z,6.87
2019-05-21T00:28:39.732Z,5.43
2019-05-21T00:31:44.108Z,5.83
2019-05-21T00:34:49.010Z,7.07
2019-05-21T00:37:53.353Z,6.40
2019-05-21T00:40:57.701Z,5.90
2019-05-21T00:43:43.727Z,7.87
2019-05-21T00:46:12.950Z,6.60
2019-05-21T00:48:41.046Z,7.10
2019-05-21T00:51:13.303Z,7.43
2019-05-21T00:53:41.473Z,8.50
2019-05-21T00:56:09.177Z,7.50
2019-05-21T00:58:37.016Z,9.83
2019-05-21T01:01:05.134Z,9.63
2019-05-21T01:03:32.748Z,11.03
2019-05-21T01:06:01.757Z,11.33
2019-05-21T01:08:29.788Z,12.27
2019-05-21T01:10:57.400Z,14.57
2019-05-21T01:13:26.184Z,14.77
2019-05-21T01:15:54.097Z,13.67
2019-05-21T01:18:21.663Z,14.17
2019-05-21T01:20:49.379Z,14.30
2019-05-21T01:23:17.265Z,12.10
2019-05-21T01:25:44.839Z,14.63
2019-05-21T01:28:12.440Z,11.33
2019-05-21T01:30:40.399Z,16.40
2019-05-21T01:33:08.071Z,15.87
2019-05-21T01:35:35.647Z,16.37
2019-05-21T01:38:04.647Z,15.83
2019-05-21T01:40:32.329Z,16.13
2019-05-21T01:43:03.379Z,18.43
2019-05-21T01:45:30.516Z,16.63
2019-05-21T01:47:58.220Z,14.17
2019-05-21T01:50:25.881Z,15.63
2019-05-21T01:52:57.540Z,15.60
2019-05-21T01:55:24.996Z,15.97
2019-05-21T01:57:52.832Z,13.03
2019-05-21T02:00:20.691Z,14.30
2019-05-21T02:02:48.948Z,13.07
2019-05-21T02:05:32.510Z,14.83
2019-05-21T02:07:57.390Z,13.53
2019-05-21T02:10:28.025Z,15.43
2019-05-21T02:12:58.763Z,15.00
2019-05-21T02:15:30.045Z,12.80
2019-05-21T02:18:01.540Z,12.30
2019-05-21T02:20:30.123Z,10.90
2019-05-21T02:23:00.628Z,11.47
2019-05-21T02:25:30.603Z,13.33
2019-05-21T02:27:58.992Z,10.23
2019-05-21T02:30:27.797Z,11.27
2019-05-21T02:32:57.619Z,14.03
2019-05-21T02:35:30.502Z,13.33
2019-05-21T02:38:00.408Z,13.40
2019-05-21T02:40:40.519Z,12.33
2019-05-21T02:43:16.847Z,14.10
2019-05-21T02:45:46.483Z,12.97
2019-05-21T02:48:21.350Z,11.70
2019-05-21T02:50:53.074Z,11.53
2019-05-21T02:53:25.715Z,13.07
2019-05-21T02:55:55.557Z,11.23
2019-05-21T02:58:26.152Z,15.33
2019-05-21T03:01:20.063Z,14.23
2019-05-21T03:03:57.992Z,13.40
2019-05-21T03:06:27.493Z,12.67
2019-05-21T03:08:58.540Z,11.23
2019-05-21T03:11:28.265Z,11.83
2019-05-21T03:14:06.874Z,11.00
2019-05-21T03:16:39.078Z,11.30
2019-05-21T03:19:11.383Z,11.83
2019-05-21T03:21:41.261Z,8.87
2019-05-21T03:24:14.076Z,8.83
2019-05-21T03:26:43.471Z,10.70
2019-05-21T03:29:27.237Z,9.50
2019-05-21T03:31:55.392Z,11.20
2019-05-21T03:34:23.695Z,7.30
2019-05-21T03:36:53.718Z,7.10
2019-05-21T03:39:22.443Z,10.07
2019-05-21T03:41:53.623Z,8.27
2019-05-21T03:44:21.490Z,7.70
2019-05-21T03:46:50.518Z,7.13
2019-05-21T03:49:18.416Z,7.57
2019-05-21T03:51:47.963Z,4.40
2019-05-21T03:54:19.519Z,4.47
2019-05-21T03:57:03.426Z,3.83
2019-05-21T03:59:35.609Z,3.57
2019-05-21T04:02:11.219Z,2.07
2019-05-21T04:04:41.601Z,2.17
2019-05-21T04:07:16.130Z,1.67
2019-05-21T04:09:47.942Z,2.00
2019-05-21T04:12:19.017Z,1.67
2019-05-21T04:14:54.121Z,1.63
2019-05-21T04:17:56.014Z,1.70
2019-05-21T04:20:26.309Z,1.33
2019-05-21T04:22:57.169Z,1.20
2019-05-21T04:25:27.764Z,1.40
2019-05-21T04:27:57.189Z,1.47
2019-05-21T04:30:28.536Z,1.17
2019-05-21T04:32:57.394Z,1.47
2019-05-21T04:35:35.911Z,1.47
2019-05-21T04:38:09.429Z,1.00
2019-05-21T04:40:44.986Z,1.10
2019-05-21T04:43:19.212Z,1.00
2019-05-21T04:46:16.101Z,1.00
2019-05-21T04:48:54.830Z,1.10
2019-05-21T04:55:17.929Z,1.57
2019-05-21T04:58:03.684Z,1.30
2019-05-21T05:00:36.719Z,1.50
2019-05-21T05:03:13.530Z,1.10
2019-05-21T05:06:05.137Z,1.00
2019-05-21T05:08:43.731Z,2.40
2019-05-21T05:11:16.934Z,6.83
2019-05-21T05:13:54.196Z,2.57
2019-05-21T05:16:47.836Z,2.27
2019-05-21T05:19:58.441Z,2.67
2019-05-21T05:22:54.561Z,1.63
2019-05-21T05:25:24.456Z,2.67
2019-05-21T05:27:55.724Z,1.23
2019-05-21T05:30:41.256Z,1.67
2019-05-21T05:33:12.423Z,1.30
2019-05-21T05:36:07.436Z,1.20
2019-05-21T05:39:17.911Z,1.53
2019-05-21T05:46:01.468Z,2.07
2019-05-21T05:52:14.553Z,1.30
2019-05-21T05:54:51.305Z,2.23
2019-05-21T05:57:36.267Z,2.27
2019-05-21T06:00:09.557Z,1.57
2019-05-21T06:02:43.120Z,3.83
2019-05-21T06:09:30.778Z,1.70
2019-05-21T06:12:14.627Z,2.90
2019-05-21T06:14:59.798Z,1.50
2019-05-21T06:18:01.445Z,1.90
2019-05-21T06:20:49.488Z,3.27
2019-05-21T06:27:21.544Z,1.33
2019-05-21T06:30:26.915Z,1.50
2019-05-21T06:33:01.370Z,1.60
2019-05-21T06:35:30.578Z,1.73
2019-05-21T06:38:15.018Z,1.37
2019-05-21T06:40:31.572Z,2.87
2019-05-21T06:42:59.872Z,1.70
2019-05-21T06:45:34.479Z,2.90
2019-05-21T06:48:02.159Z,2.37
2019-05-21T06:50:29.934Z,1.73
2019-05-21T06:52:58.329Z,1.67
2019-05-21T06:55:26.078Z,1.93
2019-05-21T06:58:18.532Z,2.23
2019-05-21T07:04:29.957Z,1.53
2019-05-21T07:08:05.344Z,1.73
2019-05-21T07:10:41.070Z,3.00
2019-05-21T07:13:46.435Z,3.13
2019-05-21T07:21:00.513Z,1.70
2019-05-21T07:23:26.181Z,1.13
2019-05-21T07:25:54.752Z,1.10
2019-05-21T07:28:22.361Z,1.60
2019-05-21T07:31:22.314Z,1.70
2019-05-21T07:34:11.501Z,1.20
2019-05-21T07:40:36.598Z,2.23
2019-05-21T07:43:53.423Z,1.10
2019-05-21T07:46:43.379Z,2.33
2019-05-21T07:49:30.027Z,1.90
2019-05-21T07:52:39.446Z,1.33
2019-05-21T07:56:03.127Z,1.77
2019-05-21T07:58:52.692Z,2.20
2019-05-21T08:02:11.293Z,1.30
2019-05-21T08:05:08.817Z,1.30
2019-05-21T08:08:48.720Z,1.70
2019-05-21T08:11:55.322Z,1.50
2019-05-21T08:14:24.373Z,2.27
2019-05-21T08:17:02.636Z,2.93
2019-05-21T08:19:48.062Z,3.30
2019-05-21T08:22:16.715Z,3.73
2019-05-21T08:24:48.093Z,4.57
2019-05-21T08:27:29.218Z,4.80
2019-05-21T08:30:19.249Z,4.40
2019-05-21T08:33:48.445Z,5.47
2019-05-21T08:36:18.782Z,6.57
2019-05-21T08:38:46.795Z,6.23
2019-05-21T08:41:14.624Z,6.07
2019-05-21T08:43:42.330Z,6.27
2019-05-21T08:46:12.628Z,5.90
2019-05-21T08:48:42.260Z,6.87
2019-05-21T08:51:31.303Z,6.80
2019-05-21T08:55:05.931Z,7.13
2019-05-21T08:58:56.424Z,7.73
2019-05-21T09:01:53.288Z,10.53
2019-05-21T09:04:46.270Z,8.20
2019-05-21T09:10:42.688Z,11.43
2019-05-21T09:13:10.635Z,12.13
2019-05-21T09:19:40.808Z,10.73
2019-05-21T09:22:14.789Z,13.70
2019-05-21T09:25:50.187Z,11.77
2019-05-21T09:29:11.281Z,11.10
2019-05-21T09:31:38.869Z,9.83
2019-05-21T09:34:48.306Z,10.17
2019-05-21T09:37:19.089Z,9.93
2019-05-21T09:39:50.982Z,9.47
2019-05-21T09:42:40.929Z,10.23
2019-05-21T09:45:41.433Z,9.23
2019-05-21T09:55:35.808Z,8.60
2019-05-21T09:58:36.220Z,10.70
2019-05-21T10:05:48.172Z,10.13
2019-05-21T10:08:36.985Z,9.73
2019-05-21T10:11:06.576Z,10.13
2019-05-21T10:13:34.838Z,9.00
2019-05-21T10:16:07.846Z,10.40
2019-05-21T10:18:45.859Z,12.47
2019-05-21T10:21:20.132Z,8.57
2019-05-21T10:23:50.374Z,9.13
2019-05-21T10:30:02.310Z,8.17
2019-05-21T10:33:12.356Z,10.03
2019-05-21T10:36:04.434Z,8.00
2019-05-21T10:38:39.168Z,7.37
2019-05-21T10:41:35.896Z,8.03
2019-05-21T10:44:06.895Z,7.63
2019-05-21T10:46:44.370Z,8.73
2019-05-21T10:53:27.953Z,7.60
2019-05-21T10:55:56.181Z,9.73
2019-05-21T10:58:29.311Z,8.40
2019-05-21T11:01:06.026Z,9.47
2019-05-21T11:04:47.619Z,8.70
2019-05-21T11:08:24.484Z,8.10
2019-05-21T11:11:52.970Z,8.43
2019-05-21T11:15:30.066Z,8.00
2019-05-21T11:18:11.219Z,11.83
2019-05-21T11:20:37.281Z,8.87
2019-05-21T11:23:13.110Z,9.63
2019-05-21T11:29:23.381Z,11.10
2019-05-21T11:31:59.674Z,12.70
2019-05-21T11:34:44.806Z,12.83
2019-05-21T11:37:26.037Z,15.43
2019-05-21T11:42:53.713Z,12.03
2019-05-21T11:45:32.106Z,14.67
2019-05-21T11:47:55.345Z,14.00
2019-05-21T11:50:26.056Z,14.73
2019-05-21T11:53:30.340Z,14.90
2019-05-21T11:56:29.489Z,14.97
2019-05-21T11:58:57.819Z,13.77
2019-05-21T12:01:25.439Z,13.93
2019-05-21T12:07:29.748Z,15.50
2019-05-21T12:10:01.491Z,16.90
2019-05-21T12:12:31.664Z,16.50
2019-05-21T12:15:01.718Z,13.97
2019-05-21T12:17:38.284Z,13.77
2019-05-21T12:20:08.546Z,12.50
2019-05-21T12:22:36.473Z,13.97
2019-05-21T12:25:04.697Z,15.03
2019-05-21T12:27:51.683Z,14.93
2019-05-21T12:30:32.141Z,14.17
2019-05-21T12:33:05.646Z,14.20
2019-05-21T12:35:41.496Z,13.27
2019-05-21T12:38:09.615Z,14.40
2019-05-21T12:44:57.488Z,14.40
2019-05-21T12:47:27.511Z,14.47
2019-05-21T12:49:55.148Z,12.67
2019-05-21T12:52:53.793Z,13.23
2019-05-21T12:55:38.944Z,12.97
2019-05-21T12:58:10.099Z,12.73
2019-05-21T13:00:51.334Z,12.20
2019-05-21T13:03:19.114Z,12.03
2019-05-21T13:05:53.364Z,12.20
2019-05-21T13:08:20.985Z,13.93
2019-05-21T13:11:28.319Z,11.33
2019-05-21T13:14:00.178Z,9.67
2019-05-21T13:20:24.715Z,10.13
2019-05-21T13:23:35.610Z,11.20
2019-05-21T13:26:39.543Z,10.60
2019-05-21T13:29:36.917Z,10.73
2019-05-21T13:32:43.962Z,11.53
2019-05-21T13:35:13.442Z,10.27
2019-05-21T13:37:51.113Z,10.60
2019-05-21T13:44:08.229Z,9.60
2019-05-21T13:46:37.885Z,11.03
2019-05-21T13:49:12.295Z,9.53
2019-05-21T13:52:31.113Z,8.47
2019-05-21T13:59:00.835Z,8.20
2019-05-21T14:01:49.509Z,8.07
2019-05-21T14:04:21.038Z,8.70
2019-05-21T14:06:51.294Z,7.47
2019-05-21T14:09:21.060Z,7.77
2019-05-21T14:12:31.296Z,7.70
2019-05-21T14:15:28.395Z,7.17
2019-05-21T14:18:38.798Z,8.53
2019-05-21T14:21:18.300Z,7.33
2019-05-21T14:27:58.095Z,7.07
2019-05-21T14:30:33.621Z,8.23
2019-05-21T14:33:03.374Z,7.07
2019-05-21T14:35:31.031Z,7.73
2019-05-21T14:38:13.521Z,9.83
2019-05-21T14:41:29.232Z,8.23
2019-05-21T14:44:32.045Z,8.10
2019-05-21T14:50:25.252Z,7.37
2019-05-21T14:53:00.033Z,6.83
2019-05-21T14:55:30.114Z,8.43
2019-05-21T14:58:04.167Z,9.00
2019-05-21T15:00:47.434Z,5.50
2019-05-21T15:03:30.294Z,10.23
2019-05-21T15:06:03.976Z,6.27
2019-05-21T15:08:34.769Z,5.73
2019-05-21T15:11:08.018Z,6.23
2019-05-21T15:13:38.943Z,6.13
2019-05-21T15:16:12.112Z,5.67
2019-05-21T15:18:41.881Z,7.67
2019-05-21T15:21:31.209Z,5.97
2019-05-21T15:24:10.594Z,5.07
2019-05-21T15:26:47.483Z,5.07
2019-05-21T15:36:44.413Z,5.67
2019-05-21T15:39:19.812Z,5.93
2019-05-21T15:42:09.407Z,8.03
2019-05-21T15:44:37.283Z,5.73
2019-05-21T15:47:24.509Z,4.67
2019-05-21T15:49:59.717Z,7.10
2019-05-21T15:52:41.065Z,5.37
2019-05-21T15:55:56.216Z,4.80
2019-05-21T15:59:15.823Z,6.00
2019-05-21T16:02:41.850Z,4.37
2019-05-21T16:05:31.667Z,4.53
2019-05-21T16:08:57.897Z,3.97
2019-05-21T16:19:18.210Z,4.10
2019-05-21T16:22:11.403Z,5.40
2019-05-21T16:25:00.320Z,4.27
2019-05-21T16:28:22.317Z,5.70
2019-05-21T16:31:45.517Z,4.70
2019-05-21T16:34:31.784Z,4.67
2019-05-21T16:37:19.301Z,4.63
2019-05-21T16:40:13.796Z,4.90
2019-05-21T16:47:44.276Z,5.37
2019-05-21T16:50:53.583Z,6.47
2019-05-21T16:53:55.003Z,9.50
2019-05-21T16:56:23.090Z,9.83
2019-05-21T16:59:45.975Z,8.27
2019-05-21T17:03:30.518Z,7.80
2019-05-21T17:05:59.538Z,8.43
2019-05-21T17:08:52.032Z,7.93
2019-05-21T17:11:35.267Z,10.17
2019-05-21T17:14:27.048Z,8.87
2019-05-21T17:17:14.820Z,7.30
2019-05-21T17:20:16.724Z,8.90
2019-05-21T17:22:50.550Z,10.97
2019-05-21T17:26:11.174Z,9.50
2019-05-21T17:29:02.150Z,8.73
2019-05-21T17:31:36.674Z,7.93
2019-05-21T17:34:10.475Z,9.63
2019-05-21T17:36:48.139Z,10.73
2019-05-21T17:39:19.009Z,12.67
2019-05-21T17:41:47.232Z,12.43
2019-05-21T17:44:15.174Z,11.30
2019-05-21T17:46:50.637Z,12.23
2019-05-21T17:49:23.517Z,12.00
2019-05-21T17:58:42.096Z,13.03
2019-05-21T18:01:14.705Z,11.10
2019-05-21T18:08:35.197Z,14.47
2019-05-21T18:11:12.199Z,11.80
2019-05-21T18:13:43.942Z,12.73
2019-05-21T18:16:12.582Z,10.47
2019-05-21T18:18:40.952Z,10.47
2019-05-21T18:21:13.924Z,12.00
2019-05-21T18:24:15.443Z,10.00
2019-05-21T18:27:20.724Z,9.90
2019-05-21T18:29:52.749Z,12.57
2019-05-21T18:32:25.759Z,11.80
2019-05-21T18:35:01.767Z,10.63
2019-05-21T18:37:38.143Z,11.70
2019-05-21T18:40:22.330Z,12.40
2019-05-21T18:43:21.317Z,12.10
2019-05-21T18:45:46.140Z,12.93
2019-05-21T18:48:15.562Z,11.30
2019-05-21T18:50:43.358Z,10.60
2019-05-21T18:53:13.363Z,11.00
2019-05-21T18:55:43.153Z,10.97
2019-05-21T18:58:18.234Z,10.50
2019-05-21T19:02:03.881Z,12.17
2019-05-21T19:08:32.827Z,11.83
2019-05-21T19:11:05.101Z,12.90
2019-05-21T19:14:12.183Z,12.67
2019-05-21T19:17:35.160Z,11.00
2019-05-21T19:19:57.629Z,11.00
2019-05-21T19:22:42.988Z,12.63
2019-05-21T19:25:18.024Z,12.70
2019-05-21T19:28:51.158Z,11.37
2019-05-21T19:31:21.625Z,14.37
2019-05-21T19:33:59.017Z,13.27
2019-05-21T19:36:26.637Z,11.93
2019-05-21T19:38:55.031Z,11.20
2019-05-21T19:41:23.491Z,16.93
2019-05-21T19:43:57.705Z,13.00
2019-05-21T19:46:22.888Z,11.37
2019-05-21T19:48:52.865Z,14.90
2019-05-21T19:51:29.064Z,14.80
2019-05-21T19:54:02.526Z,12.23
2019-05-21T19:56:36.493Z,11.53
2019-05-21T19:59:04.626Z,12.60
2019-05-21T20:01:34.245Z,12.10
2019-05-21T20:04:02.435Z,12.50
2019-05-21T20:06:35.349Z,13.47
2019-05-21T20:09:03.947Z,13.70
2019-05-21T20:11:31.679Z,9.57
2019-05-21T20:14:02.634Z,11.53
2019-05-21T20:16:39.747Z,12.77
2019-05-21T20:19:21.779Z,16.10
2019-05-21T20:21:50.868Z,15.93
2019-05-21T20:24:18.919Z,11.40
2019-05-21T20:26:48.605Z,13.33
2019-05-21T20:29:22.458Z,15.13
2019-05-21T20:31:52.627Z,17.30
2019-05-21T20:34:33.805Z,11.73
2019-05-21T20:37:04.459Z,14.70
2019-05-21T20:40:36.506Z,17.73
2019-05-21T20:47:06.083Z,16.90
2019-05-21T20:49:34.975Z,16.57
2019-05-21T20:52:18.087Z,14.23
2019-05-21T20:54:37.724Z,18.33
2019-05-21T20:57:10.168Z,13.63
2019-05-21T20:59:42.550Z,15.03
2019-05-21T21:02:36.719Z,17.07
2019-05-21T21:05:34.543Z,16.50
2019-05-21T21:08:02.853Z,18.77
2019-05-21T21:10:32.602Z,16.70
2019-05-21T21:13:03.697Z,19.53
2019-05-21T21:15:31.714Z,21.17
2019-05-21T21:18:02.548Z,18.33
2019-05-21T21:20:39.510Z,19.13
2019-05-21T21:23:08.462Z,17.47
2019-05-21T21:25:36.830Z,20.70
2019-05-21T21:28:04.841Z,22.93
2019-05-21T21:30:33.798Z,24.53
2019-05-21T21:33:03.445Z,21.07
2019-05-21T21:35:42.322Z,24.13
2019-05-21T21:38:10.684Z,21.87
2019-05-21T21:40:39.038Z,21.97
2019-05-21T21:43:08.135Z,30.13
2019-05-21T21:45:36.926Z,20.57
2019-05-21T21:48:05.115Z,21.63
2019-05-21T21:50:38.174Z,20.50
2019-05-21T21:53:25.349Z,23.77
2019-05-21T21:56:07.343Z,22.60
2019-05-21T21:58:35.737Z,20.63
2019-05-21T22:02:00.152Z,21.20
2019-05-21T22:04:36.831Z,26.77
2019-05-21T22:07:51.244Z,25.33
2019-05-21T22:10:19.991Z,24.90
2019-05-21T22:12:48.238Z,23.63
2019-05-21T22:15:15.947Z,22.63
2019-05-21T22:17:46.213Z,23.63
2019-05-21T22:20:14.217Z,24.03
2019-05-21T22:22:41.973Z,24.67
2019-05-21T22:25:18.426Z,22.10
2019-05-21T22:27:49.016Z,25.03
2019-05-21T22:30:18.917Z,23.40
2019-05-21T22:32:49.528Z,21.10
2019-05-21T22:35:17.639Z,24.57
2019-05-21T22:37:45.852Z,21.97
2019-05-21T22:40:22.147Z,20.60
2019-05-21T22:42:50.498Z,22.83
2019-05-21T22:45:18.776Z,24.53
2019-05-21T22:47:46.565Z,21.60
2019-05-21T22:50:20.042Z,24.57
2019-05-21T22:52:50.819Z,24.07
2019-05-21T22:55:18.424Z,23.43
2019-05-21T22:57:48.415Z,23.57
2019-05-21T23:00:19.570Z,23.13
2019-05-21T23:02:58.727Z,23.90
2019-05-21T23:05:26.632Z,21.93
2019-05-21T23:08:03.727Z,23.93
2019-05-21T23:10:36.829Z,25.23
2019-05-21T23:13:37.557Z,25.53
2019-05-21T23:16:07.602Z,24.03
2019-05-21T23:18:35.622Z,25.33
2019-05-21T23:21:06.701Z,22.37
2019-05-21T23:23:35.259Z,23.13
2019-05-21T23:26:04.585Z,22.80
2019-05-21T23:28:33.213Z,25.60
2019-05-21T23:31:02.714Z,26.30
2019-05-21T23:33:30.605Z,21.63
2019-05-21T23:36:05.203Z,24.00
2019-05-21T23:38:36.073Z,25.17
2019-05-21T23:41:10.275Z,23.17
2019-05-21T23:43:39.073Z,23.23
2019-05-21T23:46:06.899Z,24.17
2019-05-21T23:48:34.929Z,23.23
2019-05-21T23:51:03.613Z,22.93
2019-05-21T23:53:33.657Z,20.37
2019-05-21T23:56:03.049Z,24.13
2019-05-21T23:58:31.662Z,22.17
